sensor_id;sensor_type;location;lat;lon;timestamp;P1;durP1;ratioP1;P2;durP2;ratioP2
54360;SDS011;40258;53.936;27.540;2022-08-01T00:00:01;7.32;;;4.15;;
54360;SDS011;40258;53.936;27.540;2022-08-01T00:02:33;6.97;;;4.30;;
54360;SDS011;40258;53.936;27.540;2022-08-01T00:05:03;7.70;;;4.20;;
54360;SDS011;40258;53.936;27.540;2022-08-01T00:07:33;7.13;;;4.47;;
54360;SDS011;40258;53.936;27.540;2022-08-01T00:10:02;8.15;;;4.70;;
54360;SDS011;40258;53.936;27.540;2022-08-01T00:12:31;6.60;;;4.40;;
54360;SDS011;40258;53.936;27.540;2022-08-01T00:15:01;8.15;;;4.15;;
54360;SDS011;40258;53.936;27.540;2022-08-01T00:17:31;6.93;;;3.95;;
54360;SDS011;40258;53.936;27.540;2022-08-01T00:20:00;7.72;;;4.65;;
54360;SDS011;40258;53.936;27.540;2022-08-01T00:22:32;6.30;;;4.82;;
54360;SDS011;40258;53.936;27.540;2022-08-01T00:25:01;9.25;;;4.32;;
54360;SDS011;40258;53.936;27.540;2022-08-01T00:27:31;6.20;;;4.22;;
54360;SDS011;40258;53.936;27.540;2022-08-01T00:30:00;7.13;;;4.20;;
54360;SDS011;40258;53.936;27.540;2022-08-01T00:32:29;7.47;;;4.20;;
54360;SDS011;40258;53.936;27.540;2022-08-01T00:34:58;6.03;;;3.58;;
54360;SDS011;40258;53.936;27.540;2022-08-01T00:37:29;8.23;;;4.47;;
54360;SDS011;40258;53.936;27.540;2022-08-01T00:39:57;7.57;;;4.32;;
54360;SDS011;40258;53.936;27.540;2022-08-01T00:42:26;7.43;;;4.35;;
54360;SDS011;40258;53.936;27.540;2022-08-01T00:44:55;6.68;;;4.40;;
54360;SDS011;40258;53.936;27.540;2022-08-01T00:47:24;6.30;;;4.05;;
54360;SDS011;40258;53.936;27.540;2022-08-01T00:49:52;7.80;;;4.28;;
54360;SDS011;40258;53.936;27.540;2022-08-01T00:52:21;7.30;;;3.60;;
54360;SDS011;40258;53.936;27.540;2022-08-01T00:54:52;7.32;;;4.03;;
54360;SDS011;40258;53.936;27.540;2022-08-01T00:57:20;6.60;;;4.10;;
54360;SDS011;40258;53.936;27.540;2022-08-01T00:59:49;6.82;;;4.68;;
54360;SDS011;40258;53.936;27.540;2022-08-01T01:02:18;5.82;;;4.00;;
54360;SDS011;40258;53.936;27.540;2022-08-01T01:04:46;9.77;;;4.32;;
54360;SDS011;40258;53.936;27.540;2022-08-01T01:07:16;6.82;;;4.00;;
54360;SDS011;40258;53.936;27.540;2022-08-01T01:09:55;6.65;;;3.63;;
54360;SDS011;40258;53.936;27.540;2022-08-01T01:12:31;6.50;;;4.03;;
54360;SDS011;40258;53.936;27.540;2022-08-01T01:15:06;8.38;;;4.50;;
54360;SDS011;40258;53.936;27.540;2022-08-01T01:17:41;7.63;;;4.20;;
54360;SDS011;40258;53.936;27.540;2022-08-01T01:20:20;7.13;;;4.68;;
54360;SDS011;40258;53.936;27.540;2022-08-01T01:23:04;7.32;;;4.22;;
54360;SDS011;40258;53.936;27.540;2022-08-01T01:25:54;7.18;;;4.03;;
54360;SDS011;40258;53.936;27.540;2022-08-01T01:31:33;7.15;;;4.55;;
54360;SDS011;40258;53.936;27.540;2022-08-01T01:34:09;11.93;;;5.05;;
54360;SDS011;40258;53.936;27.540;2022-08-01T01:36:43;8.32;;;4.50;;
54360;SDS011;40258;53.936;27.540;2022-08-01T01:39:13;7.72;;;4.60;;
54360;SDS011;40258;53.936;27.540;2022-08-01T01:41:42;8.38;;;5.15;;
54360;SDS011;40258;53.936;27.540;2022-08-01T01:44:15;13.30;;;5.80;;
54360;SDS011;40258;53.936;27.540;2022-08-01T01:46:45;8.75;;;5.10;;
54360;SDS011;40258;53.936;27.540;2022-08-01T01:49:15;10.55;;;5.00;;
54360;SDS011;40258;53.936;27.540;2022-08-01T01:51:47;8.73;;;5.13;;
54360;SDS011;40258;53.936;27.540;2022-08-01T01:54:17;10.93;;;5.20;;
54360;SDS011;40258;53.936;27.540;2022-08-01T01:56:48;9.38;;;5.03;;
54360;SDS011;40258;53.936;27.540;2022-08-01T01:59:20;9.50;;;5.30;;
54360;SDS011;40258;53.936;27.540;2022-08-01T02:01:53;11.13;;;5.40;;
54360;SDS011;40258;53.936;27.540;2022-08-01T02:04:26;9.35;;;5.45;;
54360;SDS011;40258;53.936;27.540;2022-08-01T02:06:58;9.95;;;5.32;;
54360;SDS011;40258;53.936;27.540;2022-08-01T02:09:28;9.63;;;6.35;;
54360;SDS011;40258;53.936;27.540;2022-08-01T02:11:58;12.25;;;5.60;;
54360;SDS011;40258;53.936;27.540;2022-08-01T02:14:31;13.20;;;5.85;;
54360;SDS011;40258;53.936;27.540;2022-08-01T02:17:02;13.10;;;6.10;;
54360;SDS011;40258;53.936;27.540;2022-08-01T02:19:31;11.55;;;6.35;;
54360;SDS011;40258;53.936;27.540;2022-08-01T02:22:01;13.18;;;7.05;;
54360;SDS011;40258;53.936;27.540;2022-08-01T02:24:37;14.30;;;6.20;;
54360;SDS011;40258;53.936;27.540;2022-08-01T02:27:13;10.40;;;6.03;;
54360;SDS011;40258;53.936;27.540;2022-08-01T02:29:52;10.60;;;5.22;;
54360;SDS011;40258;53.936;27.540;2022-08-01T02:32:26;8.57;;;5.47;;
54360;SDS011;40258;53.936;27.540;2022-08-01T02:35:00;10.65;;;4.82;;
54360;SDS011;40258;53.936;27.540;2022-08-01T02:37:31;7.13;;;4.38;;
54360;SDS011;40258;53.936;27.540;2022-08-01T02:40:04;7.80;;;4.22;;
54360;SDS011;40258;53.936;27.540;2022-08-01T02:42:35;6.15;;;3.88;;
54360;SDS011;40258;53.936;27.540;2022-08-01T02:45:08;7.60;;;4.05;;
54360;SDS011;40258;53.936;27.540;2022-08-01T02:47:38;6.43;;;4.18;;
54360;SDS011;40258;53.936;27.540;2022-08-01T02:50:09;9.73;;;4.45;;
54360;SDS011;40258;53.936;27.540;2022-08-01T02:52:39;6.75;;;3.78;;
54360;SDS011;40258;53.936;27.540;2022-08-01T02:55:09;6.35;;;3.97;;
54360;SDS011;40258;53.936;27.540;2022-08-01T02:57:39;8.40;;;4.25;;
54360;SDS011;40258;53.936;27.540;2022-08-01T03:00:11;6.63;;;4.07;;
54360;SDS011;40258;53.936;27.540;2022-08-01T03:02:40;8.27;;;4.20;;
54360;SDS011;40258;53.936;27.540;2022-08-01T03:05:11;9.98;;;3.92;;
54360;SDS011;40258;53.936;27.540;2022-08-01T03:07:41;7.47;;;3.95;;
54360;SDS011;40258;53.936;27.540;2022-08-01T03:10:10;5.97;;;3.58;;
54360;SDS011;40258;53.936;27.540;2022-08-01T03:12:40;7.18;;;4.00;;
54360;SDS011;40258;53.936;27.540;2022-08-01T03:15:11;5.63;;;3.42;;
54360;SDS011;40258;53.936;27.540;2022-08-01T03:17:43;6.97;;;3.95;;
54360;SDS011;40258;53.936;27.540;2022-08-01T03:20:14;10.63;;;4.47;;
54360;SDS011;40258;53.936;27.540;2022-08-01T03:22:45;9.35;;;3.95;;
54360;SDS011;40258;53.936;27.540;2022-08-01T03:25:17;8.00;;;4.10;;
54360;SDS011;40258;53.936;27.540;2022-08-01T03:27:48;7.70;;;4.38;;
54360;SDS011;40258;53.936;27.540;2022-08-01T03:30:28;8.63;;;4.10;;
54360;SDS011;40258;53.936;27.540;2022-08-01T03:32:59;7.80;;;4.65;;
54360;SDS011;40258;53.936;27.540;2022-08-01T03:35:29;6.47;;;4.18;;
54360;SDS011;40258;53.936;27.540;2022-08-01T03:38:01;8.88;;;4.50;;
54360;SDS011;40258;53.936;27.540;2022-08-01T03:40:35;7.22;;;4.20;;
54360;SDS011;40258;53.936;27.540;2022-08-01T03:43:07;7.22;;;4.55;;
54360;SDS011;40258;53.936;27.540;2022-08-01T03:45:45;8.07;;;4.65;;
54360;SDS011;40258;53.936;27.540;2022-08-01T03:48:18;7.85;;;4.70;;
54360;SDS011;40258;53.936;27.540;2022-08-01T03:50:54;8.52;;;5.00;;
54360;SDS011;40258;53.936;27.540;2022-08-01T03:53:25;8.07;;;5.53;;
54360;SDS011;40258;53.936;27.540;2022-08-01T03:55:59;7.88;;;5.70;;
54360;SDS011;40258;53.936;27.540;2022-08-01T03:58:29;6.97;;;5.75;;
54360;SDS011;40258;53.936;27.540;2022-08-01T04:01:00;8.07;;;5.65;;
54360;SDS011;40258;53.936;27.540;2022-08-01T04:03:29;9.25;;;5.70;;
54360;SDS011;40258;53.936;27.540;2022-08-01T04:05:59;8.60;;;5.40;;
54360;SDS011;40258;53.936;27.540;2022-08-01T04:08:34;8.93;;;5.78;;
54360;SDS011;40258;53.936;27.540;2022-08-01T04:11:03;8.45;;;5.50;;
54360;SDS011;40258;53.936;27.540;2022-08-01T04:13:33;8.10;;;5.00;;
54360;SDS011;40258;53.936;27.540;2022-08-01T04:16:03;8.23;;;4.70;;
54360;SDS011;40258;53.936;27.540;2022-08-01T04:18:32;7.97;;;4.68;;
54360;SDS011;40258;53.936;27.540;2022-08-01T04:21:01;6.43;;;4.30;;
54360;SDS011;40258;53.936;27.540;2022-08-01T04:23:30;7.90;;;4.65;;
54360;SDS011;40258;53.936;27.540;2022-08-01T04:26:01;9.30;;;4.05;;
54360;SDS011;40258;53.936;27.540;2022-08-01T04:28:31;10.65;;;4.63;;
54360;SDS011;40258;53.936;27.540;2022-08-01T04:31:05;9.50;;;4.70;;
54360;SDS011;40258;53.936;27.540;2022-08-01T04:33:37;7.03;;;3.67;;
54360;SDS011;40258;53.936;27.540;2022-08-01T04:36:11;8.85;;;4.10;;
54360;SDS011;40258;53.936;27.540;2022-08-01T04:38:42;6.90;;;4.13;;
54360;SDS011;40258;53.936;27.540;2022-08-01T04:41:16;8.85;;;3.90;;
54360;SDS011;40258;53.936;27.540;2022-08-01T04:43:46;6.05;;;4.10;;
54360;SDS011;40258;53.936;27.540;2022-08-01T04:46:16;6.63;;;3.45;;
54360;SDS011;40258;53.936;27.540;2022-08-01T04:48:46;9.70;;;4.10;;
54360;SDS011;40258;53.936;27.540;2022-08-01T04:51:17;5.68;;;3.35;;
54360;SDS011;40258;53.936;27.540;2022-08-01T04:53:48;6.53;;;3.97;;
54360;SDS011;40258;53.936;27.540;2022-08-01T04:56:18;7.10;;;3.85;;
54360;SDS011;40258;53.936;27.540;2022-08-01T04:58:47;9.32;;;4.25;;
54360;SDS011;40258;53.936;27.540;2022-08-01T05:01:38;7.20;;;4.05;;
54360;SDS011;40258;53.936;27.540;2022-08-01T05:04:07;6.65;;;3.80;;
54360;SDS011;40258;53.936;27.540;2022-08-01T05:06:35;6.07;;;4.00;;
54360;SDS011;40258;53.936;27.540;2022-08-01T05:09:03;7.70;;;4.40;;
54360;SDS011;40258;53.936;27.540;2022-08-01T05:11:32;5.95;;;3.60;;
54360;SDS011;40258;53.936;27.540;2022-08-01T05:14:00;8.70;;;4.15;;
54360;SDS011;40258;53.936;27.540;2022-08-01T05:16:29;6.38;;;3.83;;
54360;SDS011;40258;53.936;27.540;2022-08-01T05:18:59;8.30;;;4.03;;
54360;SDS011;40258;53.936;27.540;2022-08-01T05:21:28;8.25;;;3.95;;
54360;SDS011;40258;53.936;27.540;2022-08-01T05:23:57;10.63;;;3.72;;
54360;SDS011;40258;53.936;27.540;2022-08-01T05:26:25;7.03;;;3.83;;
54360;SDS011;40258;53.936;27.540;2022-08-01T05:28:54;8.25;;;4.68;;
54360;SDS011;40258;53.936;27.540;2022-08-01T05:31:23;8.90;;;3.97;;
54360;SDS011;40258;53.936;27.540;2022-08-01T05:33:51;7.10;;;3.85;;
54360;SDS011;40258;53.936;27.540;2022-08-01T05:36:21;7.32;;;4.10;;
54360;SDS011;40258;53.936;27.540;2022-08-01T05:38:50;7.18;;;4.00;;
54360;SDS011;40258;53.936;27.540;2022-08-01T05:41:18;6.72;;;3.55;;
54360;SDS011;40258;53.936;27.540;2022-08-01T05:43:47;8.90;;;4.07;;
54360;SDS011;40258;53.936;27.540;2022-08-01T05:46:15;6.93;;;3.97;;
54360;SDS011;40258;53.936;27.540;2022-08-01T05:48:44;8.52;;;4.35;;
54360;SDS011;40258;53.936;27.540;2022-08-01T05:51:12;7.40;;;4.30;;
54360;SDS011;40258;53.936;27.540;2022-08-01T05:53:43;6.82;;;3.92;;
54360;SDS011;40258;53.936;27.540;2022-08-01T05:56:11;7.97;;;4.45;;
54360;SDS011;40258;53.936;27.540;2022-08-01T05:58:40;7.32;;;4.07;;
54360;SDS011;40258;53.936;27.540;2022-08-01T06:01:08;7.90;;;4.38;;
54360;SDS011;40258;53.936;27.540;2022-08-01T06:03:36;7.22;;;3.90;;
54360;SDS011;40258;53.936;27.540;2022-08-01T06:06:05;7.38;;;3.88;;
54360;SDS011;40258;53.936;27.540;2022-08-01T06:08:34;7.07;;;4.07;;
54360;SDS011;40258;53.936;27.540;2022-08-01T06:11:04;7.28;;;3.40;;
54360;SDS011;40258;53.936;27.540;2022-08-01T06:13:33;9.32;;;4.20;;
54360;SDS011;40258;53.936;27.540;2022-08-01T06:16:02;7.05;;;3.95;;
54360;SDS011;40258;53.936;27.540;2022-08-01T06:18:31;6.47;;;4.00;;
54360;SDS011;40258;53.936;27.540;2022-08-01T06:20:59;6.82;;;3.58;;
54360;SDS011;40258;53.936;27.540;2022-08-01T06:23:28;5.97;;;3.90;;
54360;SDS011;40258;53.936;27.540;2022-08-01T06:25:57;7.63;;;4.03;;
54360;SDS011;40258;53.936;27.540;2022-08-01T06:28:27;8.20;;;3.70;;
54360;SDS011;40258;53.936;27.540;2022-08-01T06:30:56;6.25;;;4.30;;
54360;SDS011;40258;53.936;27.540;2022-08-01T06:33:25;7.60;;;3.60;;
54360;SDS011;40258;53.936;27.540;2022-08-01T06:35:54;7.65;;;4.15;;
54360;SDS011;40258;53.936;27.540;2022-08-01T06:38:23;6.45;;;3.90;;
54360;SDS011;40258;53.936;27.540;2022-08-01T06:40:51;6.35;;;4.53;;
54360;SDS011;40258;53.936;27.540;2022-08-01T06:43:20;6.55;;;4.07;;
54360;SDS011;40258;53.936;27.540;2022-08-01T06:45:50;7.25;;;4.10;;
54360;SDS011;40258;53.936;27.540;2022-08-01T06:48:18;8.00;;;4.43;;
54360;SDS011;40258;53.936;27.540;2022-08-01T06:50:47;7.82;;;4.25;;
54360;SDS011;40258;53.936;27.540;2022-08-01T06:53:33;7.13;;;4.30;;
54360;SDS011;40258;53.936;27.540;2022-08-01T06:56:03;7.10;;;3.80;;
54360;SDS011;40258;53.936;27.540;2022-08-01T06:58:32;8.20;;;4.30;;
54360;SDS011;40258;53.936;27.540;2022-08-01T07:01:02;10.32;;;4.47;;
54360;SDS011;40258;53.936;27.540;2022-08-01T07:03:33;7.28;;;4.15;;
54360;SDS011;40258;53.936;27.540;2022-08-01T07:06:02;7.43;;;4.10;;
54360;SDS011;40258;53.936;27.540;2022-08-01T07:08:30;8.85;;;4.60;;
54360;SDS011;40258;53.936;27.540;2022-08-01T07:10:59;8.98;;;4.60;;
54360;SDS011;40258;53.936;27.540;2022-08-01T07:13:29;9.68;;;4.22;;
54360;SDS011;40258;53.936;27.540;2022-08-01T07:15:58;8.10;;;4.63;;
54360;SDS011;40258;53.936;27.540;2022-08-01T07:18:28;7.40;;;4.40;;
54360;SDS011;40258;53.936;27.540;2022-08-01T07:20:56;8.45;;;4.72;;
54360;SDS011;40258;53.936;27.540;2022-08-01T07:23:25;10.02;;;4.53;;
54360;SDS011;40258;53.936;27.540;2022-08-01T07:25:53;6.55;;;4.22;;
54360;SDS011;40258;53.936;27.540;2022-08-01T07:28:22;7.60;;;4.50;;
54360;SDS011;40258;53.936;27.540;2022-08-01T07:30:50;8.07;;;4.70;;
54360;SDS011;40258;53.936;27.540;2022-08-01T07:33:19;8.38;;;4.97;;
54360;SDS011;40258;53.936;27.540;2022-08-01T07:35:49;7.63;;;4.88;;
54360;SDS011;40258;53.936;27.540;2022-08-01T07:38:18;6.50;;;4.50;;
54360;SDS011;40258;53.936;27.540;2022-08-01T07:40:47;7.22;;;4.80;;
54360;SDS011;40258;53.936;27.540;2022-08-01T07:43:16;8.70;;;4.85;;
54360;SDS011;40258;53.936;27.540;2022-08-01T07:45:45;7.63;;;4.72;;
54360;SDS011;40258;53.936;27.540;2022-08-01T07:48:14;8.07;;;4.32;;
54360;SDS011;40258;53.936;27.540;2022-08-01T07:50:42;7.28;;;4.22;;
54360;SDS011;40258;53.936;27.540;2022-08-01T07:53:12;6.75;;;4.63;;
54360;SDS011;40258;53.936;27.540;2022-08-01T07:55:40;8.27;;;4.50;;
54360;SDS011;40258;53.936;27.540;2022-08-01T07:58:09;6.82;;;4.20;;
54360;SDS011;40258;53.936;27.540;2022-08-01T08:00:38;8.10;;;5.13;;
54360;SDS011;40258;53.936;27.540;2022-08-01T08:03:06;6.40;;;4.60;;
54360;SDS011;40258;53.936;27.540;2022-08-01T08:05:35;6.53;;;4.70;;
54360;SDS011;40258;53.936;27.540;2022-08-01T08:08:04;6.68;;;4.35;;
54360;SDS011;40258;53.936;27.540;2022-08-01T08:10:35;7.60;;;4.72;;
54360;SDS011;40258;53.936;27.540;2022-08-01T08:13:03;10.10;;;5.13;;
54360;SDS011;40258;53.936;27.540;2022-08-01T08:15:31;8.45;;;4.32;;
54360;SDS011;40258;53.936;27.540;2022-08-01T08:18:00;7.75;;;4.07;;
54360;SDS011;40258;53.936;27.540;2022-08-01T08:20:30;6.13;;;4.22;;
54360;SDS011;40258;53.936;27.540;2022-08-01T08:22:59;6.80;;;4.30;;
54360;SDS011;40258;53.936;27.540;2022-08-01T08:25:50;7.35;;;4.00;;
54360;SDS011;40258;53.936;27.540;2022-08-01T08:28:19;6.28;;;4.25;;
54360;SDS011;40258;53.936;27.540;2022-08-01T08:30:48;7.80;;;4.00;;
54360;SDS011;40258;53.936;27.540;2022-08-01T08:33:16;7.95;;;4.20;;
54360;SDS011;40258;53.936;27.540;2022-08-01T08:35:45;6.50;;;4.05;;
54360;SDS011;40258;53.936;27.540;2022-08-01T08:38:13;6.32;;;3.72;;
54360;SDS011;40258;53.936;27.540;2022-08-01T08:40:41;6.55;;;3.90;;
54360;SDS011;40258;53.936;27.540;2022-08-01T08:43:11;6.65;;;4.45;;
54360;SDS011;40258;53.936;27.540;2022-08-01T08:45:40;6.22;;;3.67;;
54360;SDS011;40258;53.936;27.540;2022-08-01T08:48:10;9.20;;;4.07;;
54360;SDS011;40258;53.936;27.540;2022-08-01T08:50:40;6.45;;;4.03;;
54360;SDS011;40258;53.936;27.540;2022-08-01T08:53:10;6.75;;;3.58;;
54360;SDS011;40258;53.936;27.540;2022-08-01T08:55:41;11.88;;;4.30;;
54360;SDS011;40258;53.936;27.540;2022-08-01T08:58:13;7.55;;;4.00;;
54360;SDS011;40258;53.936;27.540;2022-08-01T09:00:45;5.93;;;4.10;;
54360;SDS011;40258;53.936;27.540;2022-08-01T09:03:13;7.63;;;3.97;;
54360;SDS011;40258;53.936;27.540;2022-08-01T09:05:42;6.80;;;3.72;;
54360;SDS011;40258;53.936;27.540;2022-08-01T09:08:11;5.60;;;3.40;;
54360;SDS011;40258;53.936;27.540;2022-08-01T09:10:40;6.15;;;3.50;;
54360;SDS011;40258;53.936;27.540;2022-08-01T09:13:10;8.38;;;3.55;;
54360;SDS011;40258;53.936;27.540;2022-08-01T09:15:42;8.73;;;3.40;;
54360;SDS011;40258;53.936;27.540;2022-08-01T09:18:29;4.65;;;3.10;;
54360;SDS011;40258;53.936;27.540;2022-08-01T09:21:10;8.30;;;3.60;;
54360;SDS011;40258;53.936;27.540;2022-08-01T09:23:45;14.13;;;4.13;;
54360;SDS011;40258;53.936;27.540;2022-08-01T09:26:16;8.02;;;3.20;;
54360;SDS011;40258;53.936;27.540;2022-08-01T09:28:49;7.00;;;3.40;;
54360;SDS011;40258;53.936;27.540;2022-08-01T09:31:18;7.53;;;3.42;;
54360;SDS011;40258;53.936;27.540;2022-08-01T09:33:51;6.55;;;3.10;;
54360;SDS011;40258;53.936;27.540;2022-08-01T09:36:22;6.97;;;3.03;;
54360;SDS011;40258;53.936;27.540;2022-08-01T09:38:53;7.30;;;2.95;;
54360;SDS011;40258;53.936;27.540;2022-08-01T09:41:28;12.65;;;3.10;;
54360;SDS011;40258;53.936;27.540;2022-08-01T09:43:59;5.60;;;2.92;;
54360;SDS011;40258;53.936;27.540;2022-08-01T09:46:28;6.70;;;3.05;;
54360;SDS011;40258;53.936;27.540;2022-08-01T09:48:58;5.82;;;2.90;;
54360;SDS011;40258;53.936;27.540;2022-08-01T09:51:28;6.05;;;3.00;;
54360;SDS011;40258;53.936;27.540;2022-08-01T09:54:00;6.95;;;2.50;;
54360;SDS011;40258;53.936;27.540;2022-08-01T09:56:38;4.95;;;2.95;;
54360;SDS011;40258;53.936;27.540;2022-08-01T09:59:10;5.97;;;2.58;;
54360;SDS011;40258;53.936;27.540;2022-08-01T10:01:43;5.50;;;2.78;;
54360;SDS011;40258;53.936;27.540;2022-08-01T10:04:14;6.35;;;2.30;;
54360;SDS011;40258;53.936;27.540;2022-08-01T10:06:45;7.10;;;2.90;;
54360;SDS011;40258;53.936;27.540;2022-08-01T10:09:26;6.80;;;2.30;;
54360;SDS011;40258;53.936;27.540;2022-08-01T10:11:56;4.22;;;2.53;;
54360;SDS011;40258;53.936;27.540;2022-08-01T10:14:29;5.53;;;2.40;;
54360;SDS011;40258;53.936;27.540;2022-08-01T10:16:59;4.95;;;2.60;;
54360;SDS011;40258;53.936;27.540;2022-08-01T10:19:29;5.45;;;2.28;;
54360;SDS011;40258;53.936;27.540;2022-08-01T10:21:59;6.82;;;2.80;;
54360;SDS011;40258;53.936;27.540;2022-08-01T10:24:29;4.13;;;2.17;;
54360;SDS011;40258;53.936;27.540;2022-08-01T10:26:58;4.32;;;2.42;;
54360;SDS011;40258;53.936;27.540;2022-08-01T10:29:34;4.82;;;2.13;;
54360;SDS011;40258;53.936;27.540;2022-08-01T10:32:07;5.45;;;2.78;;
54360;SDS011;40258;53.936;27.540;2022-08-01T10:34:37;6.55;;;2.50;;
54360;SDS011;40258;53.936;27.540;2022-08-01T10:37:07;5.38;;;2.88;;
54360;SDS011;40258;53.936;27.540;2022-08-01T10:39:36;6.30;;;2.47;;
54360;SDS011;40258;53.936;27.540;2022-08-01T10:42:06;5.35;;;2.60;;
54360;SDS011;40258;53.936;27.540;2022-08-01T10:44:40;5.03;;;2.45;;
54360;SDS011;40258;53.936;27.540;2022-08-01T10:47:12;6.20;;;2.42;;
54360;SDS011;40258;53.936;27.540;2022-08-01T10:49:45;3.90;;;2.00;;
54360;SDS011;40258;53.936;27.540;2022-08-01T10:52:19;6.28;;;2.28;;
54360;SDS011;40258;53.936;27.540;2022-08-01T10:54:48;4.82;;;2.40;;
54360;SDS011;40258;53.936;27.540;2022-08-01T10:57:40;7.95;;;2.97;;
54360;SDS011;40258;53.936;27.540;2022-08-01T11:00:15;7.25;;;2.50;;
54360;SDS011;40258;53.936;27.540;2022-08-01T11:02:56;4.75;;;2.45;;
54360;SDS011;40258;53.936;27.540;2022-08-01T11:05:30;4.38;;;2.45;;
54360;SDS011;40258;53.936;27.540;2022-08-01T11:08:01;6.30;;;2.53;;
54360;SDS011;40258;53.936;27.540;2022-08-01T11:10:37;10.10;;;2.40;;
54360;SDS011;40258;53.936;27.540;2022-08-01T11:13:09;6.60;;;2.53;;
54360;SDS011;40258;53.936;27.540;2022-08-01T11:15:39;7.70;;;2.20;;
54360;SDS011;40258;53.936;27.540;2022-08-01T11:21:02;7.07;;;2.45;;
54360;SDS011;40258;53.936;27.540;2022-08-01T11:23:30;5.55;;;2.22;;
54360;SDS011;40258;53.936;27.540;2022-08-01T11:26:15;4.60;;;2.33;;
54360;SDS011;40258;53.936;27.540;2022-08-01T11:28:45;4.72;;;2.42;;
54360;SDS011;40258;53.936;27.540;2022-08-01T11:31:41;5.25;;;2.33;;
54360;SDS011;40258;53.936;27.540;2022-08-01T11:34:09;6.38;;;2.55;;
54360;SDS011;40258;53.936;27.540;2022-08-01T11:36:38;6.43;;;2.28;;
54360;SDS011;40258;53.936;27.540;2022-08-01T11:39:11;6.70;;;2.38;;
54360;SDS011;40258;53.936;27.540;2022-08-01T11:41:45;6.88;;;2.60;;
54360;SDS011;40258;53.936;27.540;2022-08-01T11:44:17;5.78;;;2.63;;
54360;SDS011;40258;53.936;27.540;2022-08-01T11:46:53;9.20;;;3.05;;
54360;SDS011;40258;53.936;27.540;2022-08-01T11:49:30;4.43;;;2.20;;
54360;SDS011;40258;53.936;27.540;2022-08-01T11:52:12;5.30;;;2.47;;
54360;SDS011;40258;53.936;27.540;2022-08-01T11:54:43;3.50;;;2.15;;
54360;SDS011;40258;53.936;27.540;2022-08-01T11:57:18;4.10;;;2.28;;
54360;SDS011;40258;53.936;27.540;2022-08-01T11:59:50;5.53;;;2.63;;
54360;SDS011;40258;53.936;27.540;2022-08-01T12:02:22;4.85;;;2.50;;
54360;SDS011;40258;53.936;27.540;2022-08-01T12:04:53;5.85;;;2.10;;
54360;SDS011;40258;53.936;27.540;2022-08-01T12:07:24;5.00;;;2.42;;
54360;SDS011;40258;53.936;27.540;2022-08-01T12:09:59;3.95;;;2.25;;
54360;SDS011;40258;53.936;27.540;2022-08-01T12:12:31;4.27;;;2.30;;
54360;SDS011;40258;53.936;27.540;2022-08-01T12:15:02;4.88;;;2.47;;
54360;SDS011;40258;53.936;27.540;2022-08-01T12:17:35;5.22;;;2.17;;
54360;SDS011;40258;53.936;27.540;2022-08-01T12:20:06;4.30;;;2.70;;
54360;SDS011;40258;53.936;27.540;2022-08-01T12:22:37;6.50;;;2.78;;
54360;SDS011;40258;53.936;27.540;2022-08-01T12:25:07;8.27;;;2.85;;
54360;SDS011;40258;53.936;27.540;2022-08-01T12:27:39;5.45;;;2.58;;
54360;SDS011;40258;53.936;27.540;2022-08-01T12:30:11;8.35;;;2.53;;
54360;SDS011;40258;53.936;27.540;2022-08-01T12:32:45;4.78;;;2.13;;
54360;SDS011;40258;53.936;27.540;2022-08-01T12:35:15;6.53;;;2.60;;
54360;SDS011;40258;53.936;27.540;2022-08-01T12:37:46;5.68;;;2.60;;
54360;SDS011;40258;53.936;27.540;2022-08-01T12:40:17;5.60;;;2.50;;
54360;SDS011;40258;53.936;27.540;2022-08-01T12:42:48;6.65;;;2.70;;
54360;SDS011;40258;53.936;27.540;2022-08-01T12:45:19;5.40;;;2.50;;
54360;SDS011;40258;53.936;27.540;2022-08-01T12:47:54;7.72;;;2.53;;
54360;SDS011;40258;53.936;27.540;2022-08-01T12:50:26;8.57;;;2.50;;
54360;SDS011;40258;53.936;27.540;2022-08-01T12:52:56;6.50;;;2.58;;
54360;SDS011;40258;53.936;27.540;2022-08-01T12:55:25;7.55;;;2.65;;
54360;SDS011;40258;53.936;27.540;2022-08-01T12:58:03;6.07;;;2.50;;
54360;SDS011;40258;53.936;27.540;2022-08-01T13:00:34;5.80;;;2.40;;
54360;SDS011;40258;53.936;27.540;2022-08-01T13:03:07;6.15;;;2.55;;
54360;SDS011;40258;53.936;27.540;2022-08-01T13:05:40;5.30;;;2.30;;
54360;SDS011;40258;53.936;27.540;2022-08-01T13:08:12;5.30;;;2.20;;
54360;SDS011;40258;53.936;27.540;2022-08-01T13:10:43;6.43;;;2.63;;
54360;SDS011;40258;53.936;27.540;2022-08-01T13:13:13;9.10;;;2.92;;
54360;SDS011;40258;53.936;27.540;2022-08-01T13:15:44;7.30;;;2.50;;
54360;SDS011;40258;53.936;27.540;2022-08-01T13:18:24;8.73;;;4.20;;
54360;SDS011;40258;53.936;27.540;2022-08-01T13:21:06;4.75;;;2.45;;
54360;SDS011;40258;53.936;27.540;2022-08-01T13:23:39;9.55;;;3.20;;
54360;SDS011;40258;53.936;27.540;2022-08-01T13:26:08;6.90;;;2.83;;
54360;SDS011;40258;53.936;27.540;2022-08-01T13:28:37;9.35;;;4.15;;
54360;SDS011;40258;53.936;27.540;2022-08-01T13:31:06;5.68;;;2.40;;
54360;SDS011;40258;53.936;27.540;2022-08-01T13:33:41;9.18;;;3.55;;
54360;SDS011;40258;53.936;27.540;2022-08-01T13:36:11;8.75;;;3.78;;
54360;SDS011;40258;53.936;27.540;2022-08-01T13:38:41;6.35;;;3.03;;
54360;SDS011;40258;53.936;27.540;2022-08-01T13:41:27;5.55;;;2.38;;
54360;SDS011;40258;53.936;27.540;2022-08-01T13:43:56;5.50;;;2.13;;
54360;SDS011;40258;53.936;27.540;2022-08-01T13:46:24;5.07;;;2.30;;
54360;SDS011;40258;53.936;27.540;2022-08-01T13:48:54;5.18;;;2.50;;
54360;SDS011;40258;53.936;27.540;2022-08-01T13:51:23;5.68;;;2.60;;
54360;SDS011;40258;53.936;27.540;2022-08-01T13:53:51;10.05;;;3.55;;
54360;SDS011;40258;53.936;27.540;2022-08-01T13:56:20;8.10;;;2.90;;
54360;SDS011;40258;53.936;27.540;2022-08-01T13:58:48;6.50;;;2.58;;
54360;SDS011;40258;53.936;27.540;2022-08-01T14:01:17;7.03;;;2.90;;
54360;SDS011;40258;53.936;27.540;2022-08-01T14:03:46;6.57;;;2.35;;
54360;SDS011;40258;53.936;27.540;2022-08-01T14:06:16;5.03;;;2.20;;
54360;SDS011;40258;53.936;27.540;2022-08-01T14:08:48;7.72;;;2.50;;
54360;SDS011;40258;53.936;27.540;2022-08-01T14:11:16;10.93;;;2.95;;
54360;SDS011;40258;53.936;27.540;2022-08-01T14:13:45;7.85;;;3.13;;
54360;SDS011;40258;53.936;27.540;2022-08-01T14:16:14;7.38;;;2.97;;
54360;SDS011;40258;53.936;27.540;2022-08-01T14:18:43;12.93;;;3.78;;
54360;SDS011;40258;53.936;27.540;2022-08-01T14:21:11;7.50;;;3.17;;
54360;SDS011;40258;53.936;27.540;2022-08-01T14:23:42;6.47;;;3.55;;
54360;SDS011;40258;53.936;27.540;2022-08-01T14:26:11;5.68;;;3.40;;
54360;SDS011;40258;53.936;27.540;2022-08-01T14:28:39;5.57;;;2.58;;
54360;SDS011;40258;53.936;27.540;2022-08-01T14:31:08;7.22;;;2.60;;
54360;SDS011;40258;53.936;27.540;2022-08-01T14:33:37;7.60;;;3.00;;
54360;SDS011;40258;53.936;27.540;2022-08-01T14:36:05;20.25;;;5.20;;
54360;SDS011;40258;53.936;27.540;2022-08-01T14:38:34;29.17;;;7.15;;
54360;SDS011;40258;53.936;27.540;2022-08-01T14:41:04;8.35;;;5.88;;
54360;SDS011;40258;53.936;27.540;2022-08-01T14:43:33;8.38;;;6.20;;
54360;SDS011;40258;53.936;27.540;2022-08-01T14:46:01;6.85;;;6.03;;
54360;SDS011;40258;53.936;27.540;2022-08-01T14:48:31;9.77;;;6.63;;
54360;SDS011;40258;53.936;27.540;2022-08-01T14:51:00;9.77;;;6.57;;
54360;SDS011;40258;53.936;27.540;2022-08-01T14:53:28;8.75;;;6.72;;
54360;SDS011;40258;53.936;27.540;2022-08-01T14:55:58;9.10;;;7.00;;
54360;SDS011;40258;53.936;27.540;2022-08-01T14:58:28;9.48;;;7.10;;
54360;SDS011;40258;53.936;27.540;2022-08-01T15:00:56;9.30;;;6.97;;